tititudorancea.com
Station Historical Data
Daily Summary for November 24, 2018 Units:  Metric    English   Both
« Previous Day
Next Day »
Daily Weekly Monthly Yearly Custom
  High: Low: Average:
Temperature: -17.8 °C 9.6 °C 13.6 °C
Dew Point: -17.8 °C 6.8 °C 8.2 °C
Humidity: Humidity % 49 % 71 %
Wind Speed: 0 km/h 7.4 km/h 20.3 km/h
Wind Gust: 0 km/h - -
Wind:- - SSW
Pressure: 0 hPa 1006 hPa -
Precipitation: 0 mm    
Historical Graphs
 
 
Ararat weather Find more about Weather in Ararat, AU


 



 


Tabular Data for November 24, 2018
Time Temperature Dew Point Pressure Wind Wind Speed Wind Gust Humidity Rainfall Rate (Hourly)
-17.8 °C -17.8 °C 0 hPa Calm     Humidity % 0 mm
00:04 9.8 °C 8.7 °C 1010.4 hPa South 31.5 km/h 19.8 km/h 93 % 0 mm
00:09 9.7 °C 8.7 °C 1010.4 hPa SSW 33.3 km/h 23.5 km/h 93 % 0 mm
00:14 9.7 °C 8.7 °C 1010.4 hPa SW 33.3 km/h 17.2 km/h 93 % 0 mm
00:19 9.7 °C 8.7 °C 1010.4 hPa North 31.5 km/h 22.7 km/h 93 % 0 mm
00:24 9.7 °C 8.7 °C 1010.4 hPa SW 30.6 km/h 15 km/h 93 % 0 mm
00:29 9.7 °C 8.7 °C 1010.4 hPa North 24.1 km/h 15.9 km/h 93 % 0 mm
00:34 9.7 °C 8.7 °C 1010.4 hPa SW 25.7 km/h 20.4 km/h 93 % 0 mm
00:39 9.7 °C 8.7 °C 1010.4 hPa SW 31.5 km/h 19.6 km/h 93 % 0 mm
00:44 9.7 °C 8.7 °C 1010.4 hPa North 25.9 km/h 14.8 km/h 93 % 0 mm
00:49 9.7 °C 8.7 °C 1010.4 hPa SW 25.7 km/h 18 km/h 93 % 0 mm
00:54 9.7 °C 8.8 °C 1010.4 hPa SW 31.5 km/h 16.7 km/h 94 % 0 mm
00:59 9.7 °C 8.7 °C 1010.4 hPa North 27.8 km/h 15.8 km/h 94 % 0 mm
01:04 9.7 °C 8.6 °C 1010.4 hPa WSW 31.5 km/h 12.4 km/h 93 % 0 mm
01:09 9.7 °C 8.6 °C 1010.4 hPa WSW 27.8 km/h 12.9 km/h 93 % 0 mm
01:14 9.7 °C 8.6 °C 1010.4 hPa SW 18.5 km/h 13.2 km/h 93 % 0 mm
01:19 9.7 °C 8.6 °C 1010.4 hPa SW 25.9 km/h 17.9 km/h 93 % 0 mm
01:24 9.7 °C 8.6 °C 1010.4 hPa SW 31.5 km/h 17.5 km/h 93 % 0 mm
01:29 9.7 °C 8.6 °C 1010.4 hPa SW 20.4 km/h 16.1 km/h 93 % 0 mm
01:34 9.6 °C 8.6 °C 1010 hPa SW 31.5 km/h 19.8 km/h 93 % 0 mm
01:39 9.6 °C 8.6 °C 1010 hPa SW 18.5 km/h 14.6 km/h 93 % 0 mm
01:44 9.6 °C 8.5 °C 1010 hPa SSW 20.9 km/h 21.7 km/h 93 % 0 mm
01:49 9.6 °C 8.5 °C 1010 hPa SW 13 km/h 9.7 km/h 93 % 0 mm
01:54 9.6 °C 8.5 °C 1010 hPa SSW 22.2 km/h 13 km/h 93 % 0 mm
01:59 9.6 °C 8.5 °C 1010 hPa SW 33.3 km/h 24.6 km/h 93 % 0 mm
02:04 9.6 °C 8.7 °C 1009.7 hPa SW 30.6 km/h 17.2 km/h 94 % 0 mm
02:09 9.6 °C 8.7 °C 1010 hPa North 18.5 km/h 13.5 km/h 94 % 0 mm
02:14 9.6 °C 8.6 °C 1010 hPa SW 19.3 km/h 17.9 km/h 93 % 0 mm
02:19 9.7 °C 8.6 °C 1010 hPa SSW 16.1 km/h 14.3 km/h 93 % 0 mm
02:24 9.7 °C 8.6 °C 1010 hPa WSW 22.5 km/h 17.9 km/h 93 % 0 mm
02:29 9.7 °C 8.7 °C 1010 hPa SW 18.5 km/h 15.4 km/h 94 % 0 mm
02:34 9.7 °C 8.6 °C 1009.7 hPa SW 29.6 km/h 21.7 km/h 93 % 0 mm
02:39 9.7 °C 8.6 °C 1009.7 hPa SW 20.9 km/h 14.6 km/h 93 % 0 mm
02:44 9.7 °C 8.6 °C 1009.7 hPa SW 11.1 km/h 10.8 km/h 93 % 0 mm
02:49 9.7 °C 8.6 °C 1009.7 hPa SSW 29.6 km/h 21.7 km/h 93 % 0 mm
02:54 9.7 °C 8.6 °C 1009.7 hPa SW 20.4 km/h 15.8 km/h 93 % 0 mm
02:59 9.7 °C 8.7 °C 1009.7 hPa SW 22.5 km/h 20 km/h 93 % 0 mm
03:04 9.7 °C 8.6 °C 1009.4 hPa SW 22.2 km/h 15 km/h 93 % 0 mm
03:09 9.7 °C 8.6 °C 1009.4 hPa SW 25.7 km/h 21.6 km/h 93 % 0 mm
03:14 9.7 °C 8.7 °C 1009.4 hPa SW 18.5 km/h 15.3 km/h 93 % 0 mm
03:19 9.7 °C 8.7 °C 1009.4 hPa North 24.1 km/h 15.6 km/h 93 % 0 mm
03:24 9.7 °C 8.7 °C 1009.4 hPa SW 22.2 km/h 12.1 km/h 93 % 0 mm
03:29 9.7 °C 8.7 °C 1009.4 hPa SW 25.7 km/h 17.4 km/h 93 % 0 mm
03:34 9.7 °C 8.7 °C 1009.4 hPa SW 22.2 km/h 13.8 km/h 93 % 0 mm
03:36 9.7 °C 8.7 °C 1009.4 hPa North 29.6 km/h 16.9 km/h 93 % 0 mm
09:09 11.3 °C 9.4 °C 1009.7 hPa South 20.4 km/h 16.1 km/h 88 % 0 mm
09:14 11.3 °C 9.4 °C 1009.7 hPa SSE 16.7 km/h 17.1 km/h 88 % 0 mm
09:19 11.4 °C 9.3 °C 1009.7 hPa SSW 24.1 km/h 18 km/h 87 % 0 mm
09:24 11.4 °C 9.1 °C 1009.7 hPa South 22.2 km/h 14.8 km/h 86 % 0 mm
09:29 11.3 °C 9.1 °C 1009.7 hPa South 24.1 km/h 11.7 km/h 86 % 0 mm
09:34 11.3 °C 9.1 °C 1009.7 hPa South 18.5 km/h 13.5 km/h 86 % 0 mm
09:39 11.3 °C 9 °C 1009.7 hPa South 18.5 km/h 12.9 km/h 86 % 0 mm
09:44 11.3 °C 9.2 °C 1009.7 hPa South 13 km/h 8.4 km/h 87 % 0 mm
09:49 11.6 °C 9.5 °C 1009.7 hPa South 24.1 km/h 13.2 km/h 87 % 0 mm
09:54 11.7 °C 9.1 °C 1009.7 hPa South 27.8 km/h 18.2 km/h 84 % 0 mm
09:59 11.7 °C 8.9 °C 1009.7 hPa SSW 14.8 km/h 13.2 km/h 83 % 0 mm
10:04 11.9 °C 9.2 °C 1009.7 hPa South 20.9 km/h 17.2 km/h 83 % 0 mm
10:09 12 °C 8.8 °C 1009.7 hPa SSW 20.4 km/h 18.3 km/h 81 % 0 mm
10:14 12 °C 8.7 °C 1010 hPa South 20.4 km/h 15.4 km/h 80 % 0 mm
10:19 11.9 °C 8.6 °C 1010 hPa SSW 22.2 km/h 11.6 km/h 80 % 0 mm
10:24 11.9 °C 8.7 °C 1010 hPa SSW 20.4 km/h 18.2 km/h 81 % 0 mm
10:29 11.9 °C 8.6 °C 1010 hPa SSW 20.4 km/h 8.4 km/h 80 % 0 mm
10:34 12.2 °C 8.4 °C 1010 hPa SSW 19.3 km/h 18.2 km/h 78 % 0 mm
10:39 12.3 °C 8.3 °C 1009.7 hPa SSE 24.1 km/h 15.4 km/h 77 % 0 mm
10:44 12.7 °C 8.6 °C 1009.7 hPa South 20.9 km/h 13.4 km/h 76 % 0 mm
10:49 13.3 °C 8.6 °C 1009.7 hPa SSE 18.5 km/h 18 km/h 73 % 0 mm
10:54 13.6 °C 8.4 °C 1009.7 hPa SSE 13 km/h 13.5 km/h 71 % 0 mm
10:59 13.4 °C 8.1 °C 1009.7 hPa SSW 24.1 km/h 17.9 km/h 70 % 0 mm
11:04 13.3 °C 8 °C 1009.7 hPa South 24.1 km/h 15.4 km/h 70 % 0 mm
11:09 13.3 °C 7.9 °C 1009.7 hPa SW 20.9 km/h 18.3 km/h 70 % 0 mm
11:14 13.6 °C 8.4 °C 1009.7 hPa South 22.2 km/h 10.8 km/h 71 % 0 mm
11:19 13.7 °C 8.7 °C 1009.7 hPa SSW 19.3 km/h 16.6 km/h 72 % 0 mm
11:24 14.3 °C 8.7 °C 1009.7 hPa South 20.4 km/h 20.4 km/h 69 % 0 mm
11:29 14.5 °C 8.4 °C 1009.7 hPa South 25.9 km/h 19.8 km/h 67 % 0 mm
11:34 14.7 °C 8.8 °C 1009.7 hPa South 22.5 km/h 16.4 km/h 68 % 0 mm
11:39 14.7 °C 8.7 °C 1009.4 hPa SSW 29 km/h 19.5 km/h 67 % 0 mm
11:44 14.6 °C 8.5 °C 1009.4 hPa SSW 22.2 km/h 12.4 km/h 67 % 0 mm
11:49 14.7 °C 8.9 °C 1009.4 hPa SSW 18.5 km/h 15 km/h 68 % 0 mm
11:54 14.7 °C 7.9 °C 1009.4 hPa South 20.4 km/h 16.7 km/h 64 % 0 mm
11:59 14.8 °C 7.8 °C 1009.4 hPa South 25.9 km/h 16.7 km/h 63 % 0 mm
12:04 15.2 °C 8.4 °C 1009 hPa SSW 25.7 km/h 13.8 km/h 64 % 0 mm
12:09 15.2 °C 8.9 °C 1009 hPa South 20.4 km/h 14 km/h 66 % 0 mm
12:14 15.2 °C 8.7 °C 1009 hPa South 13 km/h 9.7 km/h 65 % 0 mm
12:19 14.8 °C 8.3 °C 1009 hPa SSW 31.5 km/h 16.4 km/h 65 % 0 mm
12:24 14.7 °C 8.6 °C 1009 hPa SSW 20.4 km/h 12.6 km/h 67 % 0 mm
12:29 14.7 °C 8.2 °C 1009 hPa SSW 18.5 km/h 7.6 km/h 65 % 0 mm
12:34 14.8 °C 7.8 °C 1008.7 hPa SSE 18.5 km/h 9.7 km/h 63 % 0 mm
12:39 15.3 °C 8.6 °C 1008.7 hPa South 24.1 km/h 12.7 km/h 64 % 0 mm
12:44 15.6 °C 8.1 °C 1008.7 hPa WSW 18.5 km/h 8.9 km/h 61 % 0 mm
12:49 16 °C 7.7 °C 1008.7 hPa South 16.7 km/h 14.2 km/h 58 % 0 mm
12:54 15.8 °C 7.8 °C 1008.7 hPa South 25.9 km/h 12.9 km/h 59 % 0 mm
12:59 15.6 °C 7.4 °C 1008.7 hPa SSW 17.7 km/h 12.2 km/h 58 % 0 mm
13:04 16 °C 7.7 °C 1008.7 hPa South 13 km/h 10.5 km/h 58 % 0 mm
13:09 16.2 °C 7.4 °C 1008.7 hPa SSW 20.9 km/h 16.7 km/h 56 % 0 mm
13:14 16.4 °C 7.8 °C 1008.4 hPa South 25.9 km/h 19.2 km/h 57 % 0 mm
13:19 16.3 °C 7.7 °C 1008.4 hPa South 22.2 km/h 16.3 km/h 57 % 0 mm
13:24 16.2 °C 7.9 °C 1008.4 hPa North 27.4 km/h 12.9 km/h 58 % 0 mm
13:29 16.2 °C 6.8 °C 1008.4 hPa SW 20.9 km/h 16.9 km/h 54 % 0 mm
13:34 16.3 °C 7.5 °C 1008 hPa South 14.8 km/h 13.7 km/h 56 % 0 mm
13:39 16.6 °C 7.7 °C 1008 hPa South 22.2 km/h 21.4 km/h 56 % 0 mm
13:44 16.7 °C 7.6 °C 1008 hPa South 16.7 km/h 12.7 km/h 55 % 0 mm
13:49 16.8 °C 6.8 °C 1008 hPa West 19.3 km/h 9.5 km/h 52 % 0 mm
13:54 16.9 °C 7.3 °C 1008 hPa SSW 14.8 km/h 12.9 km/h 53 % 0 mm
13:59 17.2 °C 7.5 °C 1008 hPa South 18.5 km/h 13.5 km/h 53 % 0 mm
14:04 17 °C 6.8 °C 1008 hPa SW 22.5 km/h 16.1 km/h 51 % 0 mm
14:09 17.1 °C 7.4 °C 1008 hPa WSW 18.5 km/h 12.2 km/h 53 % 0 mm
14:14 17.2 °C 7.3 °C 1008 hPa SSW 18.5 km/h 15.4 km/h 52 % 0 mm
14:19 17.4 °C 7.7 °C 1008 hPa WSW 20.4 km/h 20.6 km/h 53 % 0 mm
14:24 17.8 °C 8.1 °C 1008 hPa SW 13 km/h 9.5 km/h 53 % 0 mm
14:29 17.9 °C 7.6 °C 1008 hPa North 24.1 km/h 16.1 km/h 51 % 0 mm
14:34 17.5 °C 7.8 °C 1008 hPa South 24.1 km/h 10.3 km/h 53 % 0 mm
14:39 17.8 °C 7.5 °C 1008 hPa SW 18.5 km/h 15.1 km/h 51 % 0 mm
14:44 18 °C 7.7 °C 1007.7 hPa SW 20.9 km/h 18.3 km/h 51 % 0 mm
14:49 17.7 °C 6.8 °C 1007.7 hPa SW 24.1 km/h 14 km/h 49 % 0 mm
14:54 17.7 °C 6.9 °C 1007.7 hPa SW 24.1 km/h 14.6 km/h 49 % 0 mm
14:59 17.8 °C 7.6 °C 1007.3 hPa WSW 17.7 km/h 14.8 km/h 51 % 0 mm
15:04 18.2 °C 7.9 °C 1007.3 hPa SSW 18.5 km/h 12.2 km/h 51 % 0 mm
15:09 18.3 °C 7.7 °C 1007.3 hPa SW 25.9 km/h 20.4 km/h 50 % 0 mm
15:14 17.6 °C 7.9 °C 1007.3 hPa South 16.7 km/h 13.4 km/h 53 % 0 mm
15:19 17.8 °C 8.1 °C 1007.3 hPa South 17.7 km/h 9 km/h 53 % 0 mm
15:24 17.6 °C 7.6 °C 1007.3 hPa SSW 25.9 km/h 22 km/h 52 % 0 mm
15:29 17.7 °C 8 °C 1007.3 hPa SW 25.9 km/h 16.9 km/h 53 % 0 mm
15:34 17.5 °C 7.2 °C 1007.3 hPa SW 25.9 km/h 17.5 km/h 51 % 0 mm
15:39 17.5 °C 7.2 °C 1007.3 hPa North 22.2 km/h 17.4 km/h 51 % 0 mm
15:44 17.7 °C 7.7 °C 1007.3 hPa South 16.7 km/h 11.4 km/h 52 % 0 mm
15:49 17.8 °C 7.8 °C 1007.3 hPa SSW 18.5 km/h 5.8 km/h 52 % 0 mm
15:54 17.9 °C 7.7 °C 1007.3 hPa SW 29.6 km/h 19.8 km/h 51 % 0 mm
15:59 17.8 °C 7.8 °C 1007 hPa SW 16.7 km/h 12.7 km/h 52 % 0 mm
16:04 18 °C 7.4 °C 1007 hPa North 18.5 km/h 12.6 km/h 50 % 0 mm
16:09 17.9 °C 8.2 °C 1006.7 hPa South 22.2 km/h 15 km/h 53 % 0 mm
16:14 17.9 °C 7.9 °C 1006.7 hPa South 18.5 km/h 12.6 km/h 52 % 0 mm
16:19 18.1 °C 7.8 °C 1006.7 hPa SW 18.5 km/h 13.2 km/h 51 % 0 mm
16:24 17.9 °C 7.7 °C 1006.7 hPa SSE 22.2 km/h 15.4 km/h 51 % 0 mm
16:29 17.8 °C 8.1 °C 1006.3 hPa SSW 27.4 km/h 19.6 km/h 53 % 0 mm
16:34 17.4 °C 7.7 °C 1006.3 hPa SSW 25.9 km/h 19.5 km/h 53 % 0 mm
16:39 17.2 °C 7.8 °C 1006.3 hPa South 20.4 km/h 6.9 km/h 54 % 0 mm
16:44 17.5 °C 8.6 °C 1006.3 hPa SSW 24.1 km/h 19.5 km/h 56 % 0 mm
16:49 17.4 °C 8 °C 1006.3 hPa SSW 18.5 km/h 13 km/h 54 % 0 mm
16:54 17.4 °C 8.3 °C 1006.3 hPa SW 18.5 km/h 18 km/h 55 % 0 mm
16:59 17.4 °C 8 °C 1006.3 hPa SSW 20.4 km/h 15.6 km/h 54 % 0 mm
17:04 17.4 °C 8 °C 1006.3 hPa SW 25.9 km/h 21.2 km/h 54 % 0 mm
17:09 17.1 °C 7.7 °C 1006.3 hPa SSW 24.1 km/h 15.3 km/h 54 % 0 mm
17:14 17.3 °C 7.6 °C 1006.3 hPa SSW 32.2 km/h 18.5 km/h 53 % 0 mm
17:19 17.5 °C 7.8 °C 1006.3 hPa South 18.5 km/h 10.9 km/h 53 % 0 mm
17:24 17.7 °C 7.7 °C 1006 hPa SSW 19.3 km/h 12.6 km/h 52 % 0 mm
17:29 17.5 °C 7.8 °C 1006 hPa SSW 20.4 km/h 13.7 km/h 53 % 0 mm
17:34 17.8 °C 8.1 °C 1006.3 hPa SSW 20.9 km/h 13.5 km/h 53 % 0 mm
17:39 17.3 °C 7.7 °C 1006.3 hPa SW 27.8 km/h 16.3 km/h 53 % 0 mm
17:44 17.3 °C 8.2 °C 1006.3 hPa SSW 18.5 km/h 12.2 km/h 55 % 0 mm
17:49 17.6 °C 7.8 °C 1006.3 hPa South 16.7 km/h 14.3 km/h 53 % 0 mm
17:54 17.4 °C 8 °C 1006.3 hPa North 18.5 km/h 13 km/h 54 % 0 mm
17:59 17.1 °C 8.3 °C 1006.3 hPa North 25.7 km/h 15.3 km/h 56 % 0 mm
18:04 17 °C 8.4 °C 1006.3 hPa SSW 20.4 km/h 14.2 km/h 57 % 0 mm
18:09 17.1 °C 7.9 °C 1006.3 hPa SW 22.2 km/h 18.2 km/h 55 % 0 mm
18:14 16.8 °C 7.9 °C 1006.3 hPa SSW 25.9 km/h 17.9 km/h 56 % 0 mm
18:19 16.7 °C 8.3 °C 1006.3 hPa South 29.6 km/h 15.4 km/h 58 % 0 mm
18:24 16.5 °C 8.9 °C 1006.3 hPa South 14.8 km/h 10.8 km/h 61 % 0 mm
18:29 16.2 °C 8.9 °C 1006 hPa South 18.5 km/h 12.6 km/h 62 % 0 mm
18:34 16.1 °C 8.8 °C 1006 hPa South 17.7 km/h 14.2 km/h 62 % 0 mm
18:39 16 °C 8.7 °C 1006 hPa South 14.5 km/h 9.2 km/h 62 % 0 mm
18:44 15.8 °C 8.7 °C 1006.3 hPa South 11.3 km/h 11.1 km/h 63 % 0 mm
18:49 15.5 °C 8.7 °C 1006.3 hPa South 18.5 km/h 13.7 km/h 64 % 0 mm
18:54 15.4 °C 8.6 °C 1006.3 hPa SSW 20.4 km/h 11.6 km/h 64 % 0 mm
18:59 15.2 °C 8.7 °C 1006.3 hPa SSW 13 km/h 7.1 km/h 65 % 0 mm
19:04 15.1 °C 8.6 °C 1006.3 hPa North 13 km/h 9.8 km/h 65 % 0 mm
19:09 14.9 °C 8.4 °C 1006.7 hPa South 18.5 km/h 11.4 km/h 65 % 0 mm
19:14 14.8 °C 8.6 °C 1006.7 hPa South 14.8 km/h 8.2 km/h 66 % 0 mm
19:19 14.8 °C 8.5 °C 1006.7 hPa South 7.4 km/h 6 km/h 66 % 0 mm
19:24 14.8 °C 8.5 °C 1006.7 hPa South 18.5 km/h 12.4 km/h 66 % 0 mm
19:29 14.7 °C 8.8 °C 1006.7 hPa SSE 25.9 km/h 7.4 km/h 68 % 0 mm
19:34 14.6 °C 8.9 °C 1006.7 hPa SSE 18.5 km/h 8.9 km/h 69 % 0 mm
19:39 14.4 °C 8.8 °C 1006.7 hPa South 18.5 km/h 10.5 km/h 69 % 0 mm
19:44 14.2 °C 8.8 °C 1006.7 hPa South 22.2 km/h 12.9 km/h 70 % 0 mm
19:49 14 °C 8.8 °C 1006.7 hPa South 18.5 km/h 11.1 km/h 71 % 0 mm
19:54 13.8 °C 9.1 °C 1006.7 hPa South 22.2 km/h 13.2 km/h 73 % 0 mm
19:59 13.7 °C 8.9 °C 1007 hPa South 13 km/h 9 km/h 73 % 0 mm
20:04 13.5 °C 8.9 °C 1007 hPa South 20.4 km/h 13.8 km/h 74 % 0 mm
20:09 13.4 °C 8.8 °C 1007 hPa South 19.3 km/h 11.7 km/h 74 % 0 mm
20:14 13.2 °C 8.7 °C 1007 hPa South 18.5 km/h 6.6 km/h 74 % 0 mm
20:19 13.1 °C 8.8 °C 1007 hPa South 14.8 km/h 7.4 km/h 75 % 0 mm
20:24 13 °C 8.7 °C 1007 hPa SSE 19.3 km/h 10 km/h 75 % 0 mm
20:29 12.9 °C 8.4 °C 1007 hPa SSE 18.5 km/h 12.1 km/h 74 % 0 mm
20:34 12.8 °C 8.3 °C 1007 hPa South 12.9 km/h 9.7 km/h 74 % 0 mm
20:39 12.8 °C 8.3 °C 1007 hPa SSE 16.7 km/h 6.1 km/h 74 % 0 mm
20:44 12.8 °C 8.3 °C 1007.3 hPa SSE 11.3 km/h 6.9 km/h 74 % 0 mm
20:49 12.8 °C 8.3 °C 1007.3 hPa South 13 km/h 9.8 km/h 74 % 0 mm
20:54 12.8 °C 8.3 °C 1007.3 hPa South 13 km/h 7.9 km/h 74 % 0 mm
20:59 12.8 °C 8.1 °C 1007.3 hPa South 16.7 km/h 10 km/h 73 % 0 mm
21:04 12.8 °C 8.1 °C 1007.3 hPa South 14.8 km/h 7.9 km/h 73 % 0 mm
21:09 12.7 °C 8 °C 1007.3 hPa South 14.8 km/h 7.4 km/h 73 % 0 mm
21:14 12.7 °C 8 °C 1007.7 hPa South 9.3 km/h 4.7 km/h 73 % 0 mm
21:19 12.7 °C 8.2 °C 1007.7 hPa South 11.1 km/h 10.3 km/h 74 % 0 mm
21:24 12.7 °C 8.3 °C 1007.7 hPa South 11.3 km/h 9.3 km/h 75 % 0 mm
21:29 12.6 °C 8.3 °C 1007.7 hPa South 16.7 km/h 12.6 km/h 75 % 0 mm
21:34 12.6 °C 8.3 °C 1007.7 hPa South 11.1 km/h 4.2 km/h 75 % 0 mm
21:39 12.6 °C 8.4 °C 1008 hPa South 13 km/h 7.2 km/h 76 % 0 mm
21:44 12.5 °C 8.6 °C 1008 hPa South 14.8 km/h 9.3 km/h 77 % 0 mm
21:49 12.4 °C 8.5 °C 1008 hPa South 9.3 km/h 4 km/h 77 % 0 mm
21:54 12.4 °C 8.7 °C 1008 hPa North 14.8 km/h 8.9 km/h 78 % 0 mm
21:59 12.3 °C 8.8 °C 1008 hPa South 16.7 km/h 11.9 km/h 79 % 0 mm
22:04 12.3 °C 8.6 °C 1008 hPa South 13 km/h 7.4 km/h 78 % 0 mm
22:09 12.2 °C 8.6 °C 1008 hPa South 14.8 km/h 9.8 km/h 79 % 0 mm
22:14 12.1 °C 8.8 °C 1008 hPa South 18.5 km/h 12.7 km/h 80 % 0 mm
22:19 12.1 °C 8.7 °C 1008 hPa South 11.1 km/h 5.1 km/h 80 % 0 mm
22:24 12.1 °C 8.7 °C 1008 hPa South 11.1 km/h 7.2 km/h 80 % 0 mm
22:29 11.9 °C 8.4 °C 1008 hPa South 19.3 km/h 10.5 km/h 79 % 0 mm
22:34 11.9 °C 8.1 °C 1008 hPa South 18.5 km/h 4 km/h 77 % 0 mm
22:39 11.9 °C 7.8 °C 1008 hPa South 18.5 km/h 12.1 km/h 76 % 0 mm
22:44 11.9 °C 7.7 °C 1008 hPa South 18.5 km/h 12.1 km/h 75 % 0 mm
22:49 11.9 °C 7.6 °C 1007.7 hPa South 20.4 km/h 6.6 km/h 75 % 0 mm
22:54 11.9 °C 7.6 °C 1007.7 hPa South 18.5 km/h 11.9 km/h 75 % 0 mm
22:59 11.9 °C 7.8 °C 1007.7 hPa North 19.3 km/h 12.1 km/h 76 % 0 mm
23:04 11.8 °C 7.7 °C 1007.7 hPa North 14.5 km/h 10.1 km/h 76 % 0 mm
23:09 11.8 °C 7.7 °C 1007.3 hPa South 16.7 km/h 8.7 km/h 76 % 0 mm
23:14 11.8 °C 7.9 °C 1007.3 hPa South 11.1 km/h 10.1 km/h 77 % 0 mm
23:19 11.7 °C 7.8 °C 1007.3 hPa South 18.5 km/h 11.6 km/h 77 % 0 mm
23:24 11.7 °C 7.8 °C 1007.3 hPa South 16.1 km/h 9.2 km/h 77 % 0 mm
23:29 11.6 °C 7.9 °C 1007.3 hPa South 16.7 km/h 6 km/h 78 % 0 mm
23:34 11.6 °C 8.1 °C 1007.3 hPa South 20.4 km/h 11.7 km/h 79 % 0 mm
23:39 11.6 °C 8.1 °C 1007.3 hPa South 14.8 km/h 9 km/h 79 % 0 mm
23:44 11.5 °C 8.2 °C 1007.3 hPa South 17.7 km/h 9.2 km/h 80 % 0 mm
23:49 11.4 °C 8.3 °C 1007.3 hPa South 16.7 km/h 8.4 km/h 81 % 0 mm
23:54 11.3 °C 8 °C 1007.3 hPa SSW 16.7 km/h 6.9 km/h 80 % 0 mm
23:59 11.3 °C 8.2 °C 1007.3 hPa SSW 18.5 km/h 8.7 km/h 81 % 0 mm
Ararat Weather
Compliments of Weather Underground - 2 mb
Click here to send mail.


ABOUT

Live weather data from Ararat, Victoria, Australia, 3377
Data uploaded from Cumulus every 5 minutes to Weather Underground.
This site then downloads the raw data for formatting and display.
Metric and imperial data can be displayed. Graphs and historical data available.
Includes Sun and Moon times and rain image live from BOM.

Check out Ararat Weather on Facebook, Twitter and Google +

Help support ongoing costs by checking out the ads





Follow @AraratWeather